sensor_id;sensor_type;location;lat;lon;timestamp;P1;durP1;ratioP1;P2;durP2;ratioP2
11488;SDS011;5801;50.804;12.638;2023-05-10T00:01:47;6.00;;;2.20;;
11488;SDS011;5801;50.804;12.638;2023-05-10T00:04:13;2.38;;;2.17;;
11488;SDS011;5801;50.804;12.638;2023-05-10T00:06:38;10.60;;;2.38;;
11488;SDS011;5801;50.804;12.638;2023-05-10T00:09:04;2.00;;;1.80;;
11488;SDS011;5801;50.804;12.638;2023-05-10T00:11:31;5.90;;;2.00;;
11488;SDS011;5801;50.804;12.638;2023-05-10T00:13:57;2.92;;;2.28;;
11488;SDS011;5801;50.804;12.638;2023-05-10T00:16:23;2.72;;;2.17;;
11488;SDS011;5801;50.804;12.638;2023-05-10T00:18:48;2.10;;;1.90;;
11488;SDS011;5801;50.804;12.638;2023-05-10T00:21:14;6.78;;;2.58;;
11488;SDS011;5801;50.804;12.638;2023-05-10T00:23:40;2.88;;;1.67;;
11488;SDS011;5801;50.804;12.638;2023-05-10T00:26:05;3.65;;;2.53;;
11488;SDS011;5801;50.804;12.638;2023-05-10T00:28:30;1.95;;;1.73;;
11488;SDS011;5801;50.804;12.638;2023-05-10T00:30:56;2.47;;;1.75;;
11488;SDS011;5801;50.804;12.638;2023-05-10T00:33:22;2.83;;;1.88;;
11488;SDS011;5801;50.804;12.638;2023-05-10T00:35:47;8.75;;;2.13;;
11488;SDS011;5801;50.804;12.638;2023-05-10T00:38:13;5.53;;;2.40;;
11488;SDS011;5801;50.804;12.638;2023-05-10T00:40:39;2.97;;;2.22;;
11488;SDS011;5801;50.804;12.638;2023-05-10T00:43:05;2.60;;;1.95;;
11488;SDS011;5801;50.804;12.638;2023-05-10T00:45:31;2.45;;;1.80;;
11488;SDS011;5801;50.804;12.638;2023-05-10T00:47:58;3.63;;;2.03;;
11488;SDS011;5801;50.804;12.638;2023-05-10T00:50:25;2.08;;;1.85;;
11488;SDS011;5801;50.804;12.638;2023-05-10T00:52:51;4.03;;;2.47;;
11488;SDS011;5801;50.804;12.638;2023-05-10T00:55:17;2.75;;;2.35;;
11488;SDS011;5801;50.804;12.638;2023-05-10T00:57:43;2.92;;;2.63;;
11488;SDS011;5801;50.804;12.638;2023-05-10T01:00:09;3.47;;;2.13;;
11488;SDS011;5801;50.804;12.638;2023-05-10T01:02:36;3.70;;;1.80;;
11488;SDS011;5801;50.804;12.638;2023-05-10T01:05:02;3.35;;;2.17;;
11488;SDS011;5801;50.804;12.638;2023-05-10T01:07:28;2.75;;;1.88;;
11488;SDS011;5801;50.804;12.638;2023-05-10T01:09:54;2.83;;;2.00;;
11488;SDS011;5801;50.804;12.638;2023-05-10T01:12:20;2.67;;;2.20;;
11488;SDS011;5801;50.804;12.638;2023-05-10T01:14:46;2.00;;;1.80;;
11488;SDS011;5801;50.804;12.638;2023-05-10T01:17:12;4.53;;;2.33;;
11488;SDS011;5801;50.804;12.638;2023-05-10T01:19:38;2.78;;;1.88;;
11488;SDS011;5801;50.804;12.638;2023-05-10T01:22:21;6.85;;;1.85;;
11488;SDS011;5801;50.804;12.638;2023-05-10T01:27:35;2.80;;;2.20;;
11488;SDS011;5801;50.804;12.638;2023-05-10T01:38:29;2.38;;;1.88;;
11488;SDS011;5801;50.804;12.638;2023-05-10T01:41:17;3.35;;;2.15;;
11488;SDS011;5801;50.804;12.638;2023-05-10T01:43:53;2.47;;;2.17;;
11488;SDS011;5801;50.804;12.638;2023-05-10T01:46:38;11.75;;;2.10;;
11488;SDS011;5801;50.804;12.638;2023-05-10T01:49:19;3.65;;;2.22;;
11488;SDS011;5801;50.804;12.638;2023-05-10T01:51:50;2.92;;;2.20;;
11488;SDS011;5801;50.804;12.638;2023-05-10T01:54:20;6.60;;;2.50;;
11488;SDS011;5801;50.804;12.638;2023-05-10T01:56:52;2.67;;;2.15;;
11488;SDS011;5801;50.804;12.638;2023-05-10T01:59:23;3.55;;;2.20;;
11488;SDS011;5801;50.804;12.638;2023-05-10T02:01:56;2.92;;;1.85;;
11488;SDS011;5801;50.804;12.638;2023-05-10T02:04:24;2.72;;;2.03;;
11488;SDS011;5801;50.804;12.638;2023-05-10T02:06:50;2.25;;;1.95;;
11488;SDS011;5801;50.804;12.638;2023-05-10T02:09:17;3.22;;;2.15;;
11488;SDS011;5801;50.804;12.638;2023-05-10T02:11:43;3.55;;;1.92;;
11488;SDS011;5801;50.804;12.638;2023-05-10T02:14:09;3.42;;;2.28;;
11488;SDS011;5801;50.804;12.638;2023-05-10T02:16:37;2.00;;;1.73;;
11488;SDS011;5801;50.804;12.638;2023-05-10T02:19:04;4.10;;;2.22;;
11488;SDS011;5801;50.804;12.638;2023-05-10T02:21:31;3.17;;;2.42;;
11488;SDS011;5801;50.804;12.638;2023-05-10T02:23:58;5.43;;;2.50;;
11488;SDS011;5801;50.804;12.638;2023-05-10T02:26:25;2.35;;;2.00;;
11488;SDS011;5801;50.804;12.638;2023-05-10T02:28:51;4.57;;;2.85;;
11488;SDS011;5801;50.804;12.638;2023-05-10T02:31:19;5.78;;;2.17;;
11488;SDS011;5801;50.804;12.638;2023-05-10T02:33:46;2.58;;;1.90;;
11488;SDS011;5801;50.804;12.638;2023-05-10T02:36:13;3.92;;;2.38;;
11488;SDS011;5801;50.804;12.638;2023-05-10T02:38:39;3.05;;;2.13;;
11488;SDS011;5801;50.804;12.638;2023-05-10T02:41:05;2.45;;;2.22;;
11488;SDS011;5801;50.804;12.638;2023-05-10T02:43:33;4.45;;;2.17;;
11488;SDS011;5801;50.804;12.638;2023-05-10T02:45:59;4.32;;;2.80;;
11488;SDS011;5801;50.804;12.638;2023-05-10T02:48:25;2.13;;;1.77;;
11488;SDS011;5801;50.804;12.638;2023-05-10T02:50:52;3.25;;;2.22;;
11488;SDS011;5801;50.804;12.638;2023-05-10T02:53:21;3.35;;;2.55;;
11488;SDS011;5801;50.804;12.638;2023-05-10T02:55:53;2.80;;;1.88;;
11488;SDS011;5801;50.804;12.638;2023-05-10T02:58:22;4.13;;;2.80;;
11488;SDS011;5801;50.804;12.638;2023-05-10T03:00:48;4.30;;;3.00;;
11488;SDS011;5801;50.804;12.638;2023-05-10T03:03:14;3.13;;;2.25;;
11488;SDS011;5801;50.804;12.638;2023-05-10T03:05:39;5.40;;;2.60;;
11488;SDS011;5801;50.804;12.638;2023-05-10T03:08:05;5.55;;;2.70;;
11488;SDS011;5801;50.804;12.638;2023-05-10T03:10:32;9.35;;;2.55;;
11488;SDS011;5801;50.804;12.638;2023-05-10T03:15:52;2.50;;;2.00;;
11488;SDS011;5801;50.804;12.638;2023-05-10T03:18:44;4.05;;;2.50;;
11488;SDS011;5801;50.804;12.638;2023-05-10T03:21:17;3.30;;;2.25;;
11488;SDS011;5801;50.804;12.638;2023-05-10T03:23:46;5.10;;;2.35;;
11488;SDS011;5801;50.804;12.638;2023-05-10T03:26:26;3.60;;;2.47;;
11488;SDS011;5801;50.804;12.638;2023-05-10T03:28:53;4.05;;;2.50;;
11488;SDS011;5801;50.804;12.638;2023-05-10T03:31:19;2.40;;;2.05;;
11488;SDS011;5801;50.804;12.638;2023-05-10T03:33:48;2.58;;;2.08;;
11488;SDS011;5801;50.804;12.638;2023-05-10T03:36:14;2.63;;;2.15;;
11488;SDS011;5801;50.804;12.638;2023-05-10T03:38:40;7.07;;;2.90;;
11488;SDS011;5801;50.804;12.638;2023-05-10T03:41:06;4.03;;;2.45;;
11488;SDS011;5801;50.804;12.638;2023-05-10T03:43:32;2.92;;;2.38;;
11488;SDS011;5801;50.804;12.638;2023-05-10T03:45:58;3.42;;;2.55;;
11488;SDS011;5801;50.804;12.638;2023-05-10T03:48:24;2.80;;;2.35;;
11488;SDS011;5801;50.804;12.638;2023-05-10T03:50:50;2.47;;;2.03;;
11488;SDS011;5801;50.804;12.638;2023-05-10T03:53:16;4.93;;;2.45;;
11488;SDS011;5801;50.804;12.638;2023-05-10T03:55:42;8.15;;;2.72;;
11488;SDS011;5801;50.804;12.638;2023-05-10T03:58:10;3.35;;;2.00;;
11488;SDS011;5801;50.804;12.638;2023-05-10T04:00:36;2.85;;;2.15;;
11488;SDS011;5801;50.804;12.638;2023-05-10T04:03:02;3.47;;;2.15;;
11488;SDS011;5801;50.804;12.638;2023-05-10T04:05:27;7.95;;;2.47;;
11488;SDS011;5801;50.804;12.638;2023-05-10T04:07:53;3.88;;;2.10;;
11488;SDS011;5801;50.804;12.638;2023-05-10T04:10:19;3.60;;;2.35;;
11488;SDS011;5801;50.804;12.638;2023-05-10T04:12:46;6.07;;;2.58;;
11488;SDS011;5801;50.804;12.638;2023-05-10T04:15:11;3.13;;;2.47;;
11488;SDS011;5801;50.804;12.638;2023-05-10T04:17:37;2.45;;;1.83;;
11488;SDS011;5801;50.804;12.638;2023-05-10T04:20:03;5.25;;;2.15;;
11488;SDS011;5801;50.804;12.638;2023-05-10T04:22:29;2.53;;;2.30;;
11488;SDS011;5801;50.804;12.638;2023-05-10T04:24:55;3.80;;;2.50;;
11488;SDS011;5801;50.804;12.638;2023-05-10T04:27:21;4.03;;;2.13;;
11488;SDS011;5801;50.804;12.638;2023-05-10T04:29:47;3.30;;;1.92;;
11488;SDS011;5801;50.804;12.638;2023-05-10T04:32:13;3.03;;;2.13;;
11488;SDS011;5801;50.804;12.638;2023-05-10T04:34:41;2.65;;;2.33;;
11488;SDS011;5801;50.804;12.638;2023-05-10T04:37:06;3.10;;;2.40;;
11488;SDS011;5801;50.804;12.638;2023-05-10T04:39:32;5.20;;;2.85;;
11488;SDS011;5801;50.804;12.638;2023-05-10T04:41:58;2.95;;;2.45;;
11488;SDS011;5801;50.804;12.638;2023-05-10T04:44:23;3.20;;;2.10;;
11488;SDS011;5801;50.804;12.638;2023-05-10T04:46:49;3.85;;;2.63;;
11488;SDS011;5801;50.804;12.638;2023-05-10T04:49:15;2.75;;;1.92;;
11488;SDS011;5801;50.804;12.638;2023-05-10T04:51:41;4.88;;;2.78;;
11488;SDS011;5801;50.804;12.638;2023-05-10T04:54:07;3.25;;;2.40;;
11488;SDS011;5801;50.804;12.638;2023-05-10T04:56:33;3.53;;;2.70;;
11488;SDS011;5801;50.804;12.638;2023-05-10T04:58:59;2.50;;;1.92;;
11488;SDS011;5801;50.804;12.638;2023-05-10T05:01:25;6.00;;;2.45;;
11488;SDS011;5801;50.804;12.638;2023-05-10T05:03:51;3.70;;;2.08;;
11488;SDS011;5801;50.804;12.638;2023-05-10T05:06:17;3.50;;;1.98;;
11488;SDS011;5801;50.804;12.638;2023-05-10T05:08:43;2.38;;;1.85;;
11488;SDS011;5801;50.804;12.638;2023-05-10T05:11:09;3.53;;;2.30;;
11488;SDS011;5801;50.804;12.638;2023-05-10T05:13:35;3.25;;;2.17;;
11488;SDS011;5801;50.804;12.638;2023-05-10T05:16:01;3.85;;;2.20;;
11488;SDS011;5801;50.804;12.638;2023-05-10T05:18:28;3.38;;;2.30;;
11488;SDS011;5801;50.804;12.638;2023-05-10T05:20:53;2.00;;;1.67;;
11488;SDS011;5801;50.804;12.638;2023-05-10T05:23:19;7.53;;;1.92;;
11488;SDS011;5801;50.804;12.638;2023-05-10T05:25:49;3.03;;;2.30;;
11488;SDS011;5801;50.804;12.638;2023-05-10T05:28:15;9.20;;;2.42;;
11488;SDS011;5801;50.804;12.638;2023-05-10T05:30:41;3.58;;;1.85;;
11488;SDS011;5801;50.804;12.638;2023-05-10T05:33:07;2.83;;;2.45;;
11488;SDS011;5801;50.804;12.638;2023-05-10T05:35:33;2.95;;;2.20;;
11488;SDS011;5801;50.804;12.638;2023-05-10T05:37:59;2.22;;;2.00;;
11488;SDS011;5801;50.804;12.638;2023-05-10T05:40:25;2.90;;;2.38;;
11488;SDS011;5801;50.804;12.638;2023-05-10T05:42:51;2.83;;;2.20;;
11488;SDS011;5801;50.804;12.638;2023-05-10T05:45:17;2.63;;;2.35;;
11488;SDS011;5801;50.804;12.638;2023-05-10T05:47:43;6.47;;;2.28;;
11488;SDS011;5801;50.804;12.638;2023-05-10T05:50:09;3.13;;;2.22;;
11488;SDS011;5801;50.804;12.638;2023-05-10T05:52:35;5.65;;;1.92;;
11488;SDS011;5801;50.804;12.638;2023-05-10T05:55:01;3.60;;;2.40;;
11488;SDS011;5801;50.804;12.638;2023-05-10T05:57:27;2.47;;;1.90;;
11488;SDS011;5801;50.804;12.638;2023-05-10T05:59:53;2.88;;;2.35;;
11488;SDS011;5801;50.804;12.638;2023-05-10T06:02:19;2.63;;;1.92;;
11488;SDS011;5801;50.804;12.638;2023-05-10T06:04:45;2.28;;;1.98;;
11488;SDS011;5801;50.804;12.638;2023-05-10T06:07:11;2.95;;;2.40;;
11488;SDS011;5801;50.804;12.638;2023-05-10T06:09:37;5.47;;;2.22;;
11488;SDS011;5801;50.804;12.638;2023-05-10T06:12:03;3.83;;;2.65;;
11488;SDS011;5801;50.804;12.638;2023-05-10T06:14:29;4.35;;;2.33;;
11488;SDS011;5801;50.804;12.638;2023-05-10T06:16:55;5.88;;;2.50;;
11488;SDS011;5801;50.804;12.638;2023-05-10T06:19:21;3.38;;;1.73;;
11488;SDS011;5801;50.804;12.638;2023-05-10T06:21:46;3.58;;;2.40;;
11488;SDS011;5801;50.804;12.638;2023-05-10T06:24:12;3.97;;;2.20;;
11488;SDS011;5801;50.804;12.638;2023-05-10T06:26:38;2.63;;;2.35;;
11488;SDS011;5801;50.804;12.638;2023-05-10T06:29:04;9.18;;;2.33;;
11488;SDS011;5801;50.804;12.638;2023-05-10T06:31:30;2.67;;;1.80;;
11488;SDS011;5801;50.804;12.638;2023-05-10T06:33:56;2.45;;;2.20;;
11488;SDS011;5801;50.804;12.638;2023-05-10T06:36:22;2.47;;;2.03;;
11488;SDS011;5801;50.804;12.638;2023-05-10T06:38:51;2.97;;;1.70;;
11488;SDS011;5801;50.804;12.638;2023-05-10T06:41:17;3.30;;;2.03;;
11488;SDS011;5801;50.804;12.638;2023-05-10T06:43:43;4.15;;;1.80;;
11488;SDS011;5801;50.804;12.638;2023-05-10T06:46:09;3.75;;;2.00;;
11488;SDS011;5801;50.804;12.638;2023-05-10T06:48:34;2.78;;;2.38;;
11488;SDS011;5801;50.804;12.638;2023-05-10T06:51:01;3.33;;;2.50;;
11488;SDS011;5801;50.804;12.638;2023-05-10T06:53:27;3.45;;;2.30;;
11488;SDS011;5801;50.804;12.638;2023-05-10T06:55:53;3.65;;;2.50;;
11488;SDS011;5801;50.804;12.638;2023-05-10T06:58:22;2.60;;;2.10;;
11488;SDS011;5801;50.804;12.638;2023-05-10T07:00:48;7.60;;;3.03;;
11488;SDS011;5801;50.804;12.638;2023-05-10T07:03:14;2.47;;;1.98;;
11488;SDS011;5801;50.804;12.638;2023-05-10T07:05:40;2.88;;;1.85;;
11488;SDS011;5801;50.804;12.638;2023-05-10T07:08:05;6.25;;;2.30;;
11488;SDS011;5801;50.804;12.638;2023-05-10T07:10:32;2.20;;;1.90;;
11488;SDS011;5801;50.804;12.638;2023-05-10T07:12:58;2.85;;;2.25;;
11488;SDS011;5801;50.804;12.638;2023-05-10T07:15:25;4.75;;;2.25;;
11488;SDS011;5801;50.804;12.638;2023-05-10T07:17:51;4.25;;;2.50;;
11488;SDS011;5801;50.804;12.638;2023-05-10T07:20:17;3.58;;;2.30;;
11488;SDS011;5801;50.804;12.638;2023-05-10T07:22:43;3.03;;;2.00;;
11488;SDS011;5801;50.804;12.638;2023-05-10T07:25:09;4.30;;;2.17;;
11488;SDS011;5801;50.804;12.638;2023-05-10T07:27:35;3.33;;;2.22;;
11488;SDS011;5801;50.804;12.638;2023-05-10T07:30:01;2.72;;;2.38;;
11488;SDS011;5801;50.804;12.638;2023-05-10T07:32:27;2.88;;;2.40;;
11488;SDS011;5801;50.804;12.638;2023-05-10T07:34:53;6.22;;;2.10;;
11488;SDS011;5801;50.804;12.638;2023-05-10T07:37:19;2.22;;;1.95;;
11488;SDS011;5801;50.804;12.638;2023-05-10T07:39:45;3.90;;;2.95;;
11488;SDS011;5801;50.804;12.638;2023-05-10T07:42:11;3.28;;;2.28;;
11488;SDS011;5801;50.804;12.638;2023-05-10T07:44:37;5.90;;;2.60;;
11488;SDS011;5801;50.804;12.638;2023-05-10T07:47:02;3.60;;;2.25;;
11488;SDS011;5801;50.804;12.638;2023-05-10T07:49:28;2.42;;;2.13;;
11488;SDS011;5801;50.804;12.638;2023-05-10T07:51:54;2.85;;;2.15;;
11488;SDS011;5801;50.804;12.638;2023-05-10T07:54:20;4.50;;;2.63;;
11488;SDS011;5801;50.804;12.638;2023-05-10T07:56:46;3.78;;;2.40;;
11488;SDS011;5801;50.804;12.638;2023-05-10T07:59:14;3.38;;;2.33;;
11488;SDS011;5801;50.804;12.638;2023-05-10T08:01:40;3.17;;;2.55;;
11488;SDS011;5801;50.804;12.638;2023-05-10T08:04:06;3.28;;;2.50;;
11488;SDS011;5801;50.804;12.638;2023-05-10T08:06:32;5.47;;;2.70;;
11488;SDS011;5801;50.804;12.638;2023-05-10T08:08:58;7.10;;;2.75;;
11488;SDS011;5801;50.804;12.638;2023-05-10T08:11:24;5.88;;;3.45;;
11488;SDS011;5801;50.804;12.638;2023-05-10T08:13:50;5.75;;;3.50;;
11488;SDS011;5801;50.804;12.638;2023-05-10T08:16:17;17.25;;;3.17;;
11488;SDS011;5801;50.804;12.638;2023-05-10T08:18:43;6.30;;;2.70;;
11488;SDS011;5801;50.804;12.638;2023-05-10T08:21:09;8.55;;;3.55;;
11488;SDS011;5801;50.804;12.638;2023-05-10T08:23:38;4.28;;;3.08;;
11488;SDS011;5801;50.804;12.638;2023-05-10T08:26:05;4.93;;;3.08;;
11488;SDS011;5801;50.804;12.638;2023-05-10T08:28:30;5.88;;;3.38;;
11488;SDS011;5801;50.804;12.638;2023-05-10T08:30:56;5.18;;;3.47;;
11488;SDS011;5801;50.804;12.638;2023-05-10T08:33:22;9.00;;;4.18;;
11488;SDS011;5801;50.804;12.638;2023-05-10T08:35:48;3.45;;;2.53;;
11488;SDS011;5801;50.804;12.638;2023-05-10T08:38:14;4.25;;;3.28;;
11488;SDS011;5801;50.804;12.638;2023-05-10T08:40:41;3.88;;;3.40;;
11488;SDS011;5801;50.804;12.638;2023-05-10T08:43:08;7.90;;;4.55;;
11488;SDS011;5801;50.804;12.638;2023-05-10T08:45:38;11.10;;;3.30;;
11488;SDS011;5801;50.804;12.638;2023-05-10T08:48:08;5.68;;;3.70;;
11488;SDS011;5801;50.804;12.638;2023-05-10T08:50:38;7.05;;;3.40;;
11488;SDS011;5801;50.804;12.638;2023-05-10T08:53:05;9.30;;;4.35;;
11488;SDS011;5801;50.804;12.638;2023-05-10T08:55:32;6.18;;;3.70;;
11488;SDS011;5801;50.804;12.638;2023-05-10T08:57:58;6.22;;;3.95;;
11488;SDS011;5801;50.804;12.638;2023-05-10T09:00:24;6.32;;;3.58;;
11488;SDS011;5801;50.804;12.638;2023-05-10T09:02:51;5.28;;;3.47;;
11488;SDS011;5801;50.804;12.638;2023-05-10T09:05:17;5.68;;;3.85;;
11488;SDS011;5801;50.804;12.638;2023-05-10T09:07:43;4.68;;;3.30;;
11488;SDS011;5801;50.804;12.638;2023-05-10T09:10:09;4.82;;;3.22;;
11488;SDS011;5801;50.804;12.638;2023-05-10T09:12:36;4.70;;;3.83;;
11488;SDS011;5801;50.804;12.638;2023-05-10T09:15:02;9.27;;;4.22;;
11488;SDS011;5801;50.804;12.638;2023-05-10T09:17:29;5.88;;;4.00;;
11488;SDS011;5801;50.804;12.638;2023-05-10T09:19:58;5.03;;;3.25;;
11488;SDS011;5801;50.804;12.638;2023-05-10T09:22:24;4.20;;;2.67;;
11488;SDS011;5801;50.804;12.638;2023-05-10T09:25:03;12.40;;;3.47;;
11488;SDS011;5801;50.804;12.638;2023-05-10T09:27:30;5.10;;;3.00;;
11488;SDS011;5801;50.804;12.638;2023-05-10T09:29:55;3.35;;;2.92;;
11488;SDS011;5801;50.804;12.638;2023-05-10T09:32:22;4.93;;;3.28;;
11488;SDS011;5801;50.804;12.638;2023-05-10T09:35:05;5.22;;;3.67;;
11488;SDS011;5801;50.804;12.638;2023-05-10T09:37:31;6.13;;;3.40;;
11488;SDS011;5801;50.804;12.638;2023-05-10T09:39:57;5.30;;;3.38;;
11488;SDS011;5801;50.804;12.638;2023-05-10T09:42:23;4.38;;;3.58;;
11488;SDS011;5801;50.804;12.638;2023-05-10T09:44:49;6.05;;;3.78;;
11488;SDS011;5801;50.804;12.638;2023-05-10T09:47:18;5.65;;;3.67;;
11488;SDS011;5801;50.804;12.638;2023-05-10T09:49:48;4.10;;;3.28;;
11488;SDS011;5801;50.804;12.638;2023-05-10T09:52:15;7.55;;;3.75;;
11488;SDS011;5801;50.804;12.638;2023-05-10T09:54:42;4.63;;;3.80;;
11488;SDS011;5801;50.804;12.638;2023-05-10T09:57:18;5.18;;;3.25;;
11488;SDS011;5801;50.804;12.638;2023-05-10T09:59:44;4.93;;;3.20;;
11488;SDS011;5801;50.804;12.638;2023-05-10T10:02:10;5.53;;;3.20;;
11488;SDS011;5801;50.804;12.638;2023-05-10T10:04:38;8.75;;;3.83;;
11488;SDS011;5801;50.804;12.638;2023-05-10T10:07:04;4.03;;;3.38;;
11488;SDS011;5801;50.804;12.638;2023-05-10T10:09:31;5.65;;;3.72;;
11488;SDS011;5801;50.804;12.638;2023-05-10T10:11:57;6.20;;;4.22;;
11488;SDS011;5801;50.804;12.638;2023-05-10T10:14:24;4.15;;;3.25;;
11488;SDS011;5801;50.804;12.638;2023-05-10T10:16:50;16.48;;;8.38;;
11488;SDS011;5801;50.804;12.638;2023-05-10T10:19:18;9.90;;;4.15;;
11488;SDS011;5801;50.804;12.638;2023-05-10T10:21:44;7.15;;;3.92;;
11488;SDS011;5801;50.804;12.638;2023-05-10T10:24:10;7.60;;;4.97;;
11488;SDS011;5801;50.804;12.638;2023-05-10T10:26:36;7.38;;;3.97;;
11488;SDS011;5801;50.804;12.638;2023-05-10T10:34:05;5.95;;;3.65;;
11488;SDS011;5801;50.804;12.638;2023-05-10T10:36:32;4.47;;;3.45;;
11488;SDS011;5801;50.804;12.638;2023-05-10T10:38:59;4.22;;;3.42;;
11488;SDS011;5801;50.804;12.638;2023-05-10T10:41:30;5.38;;;3.80;;
11488;SDS011;5801;50.804;12.638;2023-05-10T10:47:28;5.22;;;3.78;;
11488;SDS011;5801;50.804;12.638;2023-05-10T10:49:30;4.97;;;3.97;;
11488;SDS011;5801;50.804;12.638;2023-05-10T10:52:13;6.57;;;3.40;;
11488;SDS011;5801;50.804;12.638;2023-05-10T10:54:39;4.30;;;3.50;;
11488;SDS011;5801;50.804;12.638;2023-05-10T10:57:10;8.18;;;5.22;;
11488;SDS011;5801;50.804;12.638;2023-05-10T10:59:40;5.63;;;3.92;;
11488;SDS011;5801;50.804;12.638;2023-05-10T11:02:07;10.52;;;4.35;;
11488;SDS011;5801;50.804;12.638;2023-05-10T11:04:43;5.97;;;3.92;;
11488;SDS011;5801;50.804;12.638;2023-05-10T11:07:17;8.75;;;4.00;;
11488;SDS011;5801;50.804;12.638;2023-05-10T11:09:43;5.50;;;3.30;;
11488;SDS011;5801;50.804;12.638;2023-05-10T11:12:10;9.18;;;3.83;;
11488;SDS011;5801;50.804;12.638;2023-05-10T11:14:36;5.07;;;3.47;;
11488;SDS011;5801;50.804;12.638;2023-05-10T11:17:01;5.40;;;3.63;;
11488;SDS011;5801;50.804;12.638;2023-05-10T11:20:06;4.47;;;3.50;;
11488;SDS011;5801;50.804;12.638;2023-05-10T11:22:48;5.55;;;3.97;;
11488;SDS011;5801;50.804;12.638;2023-05-10T11:25:15;3.80;;;3.13;;
11488;SDS011;5801;50.804;12.638;2023-05-10T11:27:41;5.20;;;3.88;;
11488;SDS011;5801;50.804;12.638;2023-05-10T11:30:07;4.85;;;3.55;;
11488;SDS011;5801;50.804;12.638;2023-05-10T11:32:36;5.47;;;3.80;;
11488;SDS011;5801;50.804;12.638;2023-05-10T11:35:09;6.05;;;4.10;;
11488;SDS011;5801;50.804;12.638;2023-05-10T11:37:35;6.05;;;4.03;;
11488;SDS011;5801;50.804;12.638;2023-05-10T11:40:01;5.82;;;3.80;;
11488;SDS011;5801;50.804;12.638;2023-05-10T11:42:28;5.38;;;3.88;;
11488;SDS011;5801;50.804;12.638;2023-05-10T11:44:54;6.15;;;3.42;;
11488;SDS011;5801;50.804;12.638;2023-05-10T11:47:20;5.85;;;3.40;;
11488;SDS011;5801;50.804;12.638;2023-05-10T11:49:46;4.57;;;3.53;;
11488;SDS011;5801;50.804;12.638;2023-05-10T11:52:12;3.58;;;3.13;;
11488;SDS011;5801;50.804;12.638;2023-05-10T11:54:44;7.00;;;3.35;;
11488;SDS011;5801;50.804;12.638;2023-05-10T11:57:10;5.85;;;3.95;;
11488;SDS011;5801;50.804;12.638;2023-05-10T11:59:36;5.95;;;3.40;;
11488;SDS011;5801;50.804;12.638;2023-05-10T12:02:02;7.55;;;3.60;;
11488;SDS011;5801;50.804;12.638;2023-05-10T12:04:28;4.05;;;3.20;;
11488;SDS011;5801;50.804;12.638;2023-05-10T12:06:55;5.70;;;3.55;;
11488;SDS011;5801;50.804;12.638;2023-05-10T12:09:21;6.50;;;4.15;;
11488;SDS011;5801;50.804;12.638;2023-05-10T12:11:46;6.90;;;4.00;;
11488;SDS011;5801;50.804;12.638;2023-05-10T12:14:12;4.68;;;3.78;;
11488;SDS011;5801;50.804;12.638;2023-05-10T12:16:40;6.18;;;4.05;;
11488;SDS011;5801;50.804;12.638;2023-05-10T12:19:08;5.82;;;3.83;;
11488;SDS011;5801;50.804;12.638;2023-05-10T12:21:34;7.25;;;3.80;;
11488;SDS011;5801;50.804;12.638;2023-05-10T12:24:03;5.60;;;3.50;;
11488;SDS011;5801;50.804;12.638;2023-05-10T12:26:32;6.00;;;3.75;;
11488;SDS011;5801;50.804;12.638;2023-05-10T12:29:19;4.97;;;4.03;;
11488;SDS011;5801;50.804;12.638;2023-05-10T12:31:54;4.70;;;3.80;;
11488;SDS011;5801;50.804;12.638;2023-05-10T12:34:24;4.65;;;3.35;;
11488;SDS011;5801;50.804;12.638;2023-05-10T12:36:53;4.78;;;3.80;;
11488;SDS011;5801;50.804;12.638;2023-05-10T12:39:19;4.32;;;3.55;;
11488;SDS011;5801;50.804;12.638;2023-05-10T12:41:45;5.32;;;4.20;;
11488;SDS011;5801;50.804;12.638;2023-05-10T12:44:11;6.03;;;3.90;;
11488;SDS011;5801;50.804;12.638;2023-05-10T12:46:37;5.00;;;3.90;;
11488;SDS011;5801;50.804;12.638;2023-05-10T12:49:03;8.07;;;4.03;;
11488;SDS011;5801;50.804;12.638;2023-05-10T12:51:29;5.32;;;3.72;;
11488;SDS011;5801;50.804;12.638;2023-05-10T12:53:55;5.05;;;3.95;;
11488;SDS011;5801;50.804;12.638;2023-05-10T12:56:21;4.85;;;3.63;;
11488;SDS011;5801;50.804;12.638;2023-05-10T12:58:47;5.03;;;3.83;;
11488;SDS011;5801;50.804;12.638;2023-05-10T13:01:13;4.20;;;3.60;;
11488;SDS011;5801;50.804;12.638;2023-05-10T13:03:39;3.40;;;2.83;;
11488;SDS011;5801;50.804;12.638;2023-05-10T13:06:05;4.25;;;2.90;;
11488;SDS011;5801;50.804;12.638;2023-05-10T13:08:31;5.60;;;2.83;;
11488;SDS011;5801;50.804;12.638;2023-05-10T13:10:59;3.40;;;2.70;;
11488;SDS011;5801;50.804;12.638;2023-05-10T13:13:25;3.35;;;2.35;;
11488;SDS011;5801;50.804;12.638;2023-05-10T13:15:51;3.08;;;2.22;;
11488;SDS011;5801;50.804;12.638;2023-05-10T13:18:17;2.35;;;1.90;;
11488;SDS011;5801;50.804;12.638;2023-05-10T13:20:43;3.00;;;2.40;;
11488;SDS011;5801;50.804;12.638;2023-05-10T13:23:09;2.50;;;1.67;;
11488;SDS011;5801;50.804;12.638;2023-05-10T13:25:35;2.97;;;2.20;;
11488;SDS011;5801;50.804;12.638;2023-05-10T13:28:01;2.53;;;2.10;;
11488;SDS011;5801;50.804;12.638;2023-05-10T13:30:27;7.55;;;2.40;;
11488;SDS011;5801;50.804;12.638;2023-05-10T13:32:53;2.92;;;1.95;;
11488;SDS011;5801;50.804;12.638;2023-05-10T13:35:19;2.83;;;2.00;;
11488;SDS011;5801;50.804;12.638;2023-05-10T13:37:45;2.20;;;2.00;;
11488;SDS011;5801;50.804;12.638;2023-05-10T13:40:11;1.83;;;1.73;;
11488;SDS011;5801;50.804;12.638;2023-05-10T13:42:38;1.40;;;1.30;;
11488;SDS011;5801;50.804;12.638;2023-05-10T13:45:04;2.03;;;1.80;;
11488;SDS011;5801;50.804;12.638;2023-05-10T13:47:30;2.05;;;1.77;;
11488;SDS011;5801;50.804;12.638;2023-05-10T13:49:56;3.72;;;2.63;;
11488;SDS011;5801;50.804;12.638;2023-05-10T13:52:23;2.83;;;2.20;;
11488;SDS011;5801;50.804;12.638;2023-05-10T13:54:49;3.63;;;2.72;;
11488;SDS011;5801;50.804;12.638;2023-05-10T13:57:16;2.40;;;1.98;;
11488;SDS011;5801;50.804;12.638;2023-05-10T13:59:42;2.92;;;2.10;;
11488;SDS011;5801;50.804;12.638;2023-05-10T14:02:08;3.15;;;1.98;;
11488;SDS011;5801;50.804;12.638;2023-05-10T14:04:37;2.95;;;2.22;;
11488;SDS011;5801;50.804;12.638;2023-05-10T14:07:03;3.17;;;2.60;;
11488;SDS011;5801;50.804;12.638;2023-05-10T14:09:29;2.20;;;1.77;;
11488;SDS011;5801;50.804;12.638;2023-05-10T14:11:55;3.35;;;2.17;;
11488;SDS011;5801;50.804;12.638;2023-05-10T14:14:22;3.05;;;2.25;;
11488;SDS011;5801;50.804;12.638;2023-05-10T14:16:48;2.83;;;2.40;;
11488;SDS011;5801;50.804;12.638;2023-05-10T14:19:13;2.85;;;2.00;;
11488;SDS011;5801;50.804;12.638;2023-05-10T14:21:39;2.50;;;2.17;;
11488;SDS011;5801;50.804;12.638;2023-05-10T14:24:05;3.30;;;1.88;;
11488;SDS011;5801;50.804;12.638;2023-05-10T14:26:32;5.25;;;2.22;;
11488;SDS011;5801;50.804;12.638;2023-05-10T14:28:59;3.30;;;2.40;;
11488;SDS011;5801;50.804;12.638;2023-05-10T14:31:25;2.20;;;2.00;;
11488;SDS011;5801;50.804;12.638;2023-05-10T14:33:51;1.73;;;1.63;;
11488;SDS011;5801;50.804;12.638;2023-05-10T14:36:17;4.60;;;1.80;;
11488;SDS011;5801;50.804;12.638;2023-05-10T14:38:43;1.92;;;1.55;;
11488;SDS011;5801;50.804;12.638;2023-05-10T14:41:09;3.47;;;1.83;;
11488;SDS011;5801;50.804;12.638;2023-05-10T14:43:38;2.20;;;1.77;;
11488;SDS011;5801;50.804;12.638;2023-05-10T14:46:04;2.47;;;1.90;;
11488;SDS011;5801;50.804;12.638;2023-05-10T14:48:31;4.63;;;1.10;;
11488;SDS011;5801;50.804;12.638;2023-05-10T14:50:57;1.67;;;1.55;;
11488;SDS011;5801;50.804;12.638;2023-05-10T14:53:23;2.00;;;1.65;;
11488;SDS011;5801;50.804;12.638;2023-05-10T14:55:49;1.73;;;1.63;;
11488;SDS011;5801;50.804;12.638;2023-05-10T14:58:15;2.22;;;1.80;;
11488;SDS011;5801;50.804;12.638;2023-05-10T15:00:41;1.70;;;1.60;;
11488;SDS011;5801;50.804;12.638;2023-05-10T15:03:08;1.58;;;1.48;;
11488;SDS011;5801;50.804;12.638;2023-05-10T15:05:34;2.15;;;1.60;;
11488;SDS011;5801;50.804;12.638;2023-05-10T15:08:02;1.60;;;1.50;;
11488;SDS011;5801;50.804;12.638;2023-05-10T15:10:28;1.48;;;1.38;;